createdAt,value
2022-08-17T00:00:43.901Z,61.96
2022-08-17T00:03:25.521Z,62.55
2022-08-17T00:06:28.087Z,62.89
2022-08-17T00:09:00.774Z,63.23
2022-08-17T00:11:37.096Z,63.57
2022-08-17T00:14:09.205Z,63.58
2022-08-17T00:16:55.906Z,63.55
2022-08-17T00:19:27.135Z,63.53
2022-08-17T00:22:31.260Z,63.35
2022-08-17T00:24:48.716Z,63.31
2022-08-17T00:27:16.683Z,63.52
2022-08-17T00:29:46.060Z,63.83
2022-08-17T00:33:12.093Z,63.98
2022-08-17T00:35:10.630Z,64.00
2022-08-17T00:37:40.227Z,64.14
2022-08-17T00:40:11.269Z,64.40
2022-08-17T00:42:39.415Z,64.67
2022-08-17T00:45:10.949Z,64.65
2022-08-17T00:47:39.374Z,64.86
2022-08-17T00:50:10.992Z,64.82
2022-08-17T00:52:51.837Z,64.94
2022-08-17T00:55:20.885Z,65.26
2022-08-17T00:57:55.514Z,65.49
2022-08-17T01:00:32.235Z,65.57
2022-08-17T01:03:07.813Z,65.84
2022-08-17T01:05:42.089Z,65.91
2022-08-17T01:08:17.449Z,66.13
2022-08-17T01:10:59.139Z,66.56
2022-08-17T01:13:40.770Z,66.68
2022-08-17T01:16:17.280Z,66.93
2022-08-17T01:18:48.442Z,67.12
2022-08-17T01:21:51.546Z,67.29
2022-08-17T01:24:19.527Z,67.55
2022-08-17T01:26:47.546Z,67.62
2022-08-17T01:29:18.945Z,67.78
2022-08-17T01:31:52.499Z,67.85
2022-08-17T01:34:21.688Z,67.89
2022-08-17T01:36:50.596Z,68.01
2022-08-17T01:39:23.513Z,68.45
2022-08-17T01:41:56.372Z,68.62
2022-08-17T01:44:28.427Z,69.25
2022-08-17T01:46:56.842Z,69.29
2022-08-17T01:49:25.210Z,69.38
2022-08-17T01:51:55.155Z,69.65
2022-08-17T01:54:25.159Z,69.69
2022-08-17T01:56:54.366Z,69.83
2022-08-17T01:59:22.394Z,69.81
2022-08-17T02:01:50.730Z,70.10
2022-08-17T02:04:19.559Z,70.33
2022-08-17T02:06:53.249Z,70.36
2022-08-17T02:09:25.805Z,70.68
2022-08-17T02:11:58.710Z,70.74
2022-08-17T02:14:26.953Z,71.17
2022-08-17T02:16:54.838Z,71.04
2022-08-17T02:19:24.279Z,71.38
2022-08-17T02:21:56.682Z,71.20
2022-08-17T02:25:00.131Z,71.34
2022-08-17T02:27:21.770Z,71.55
2022-08-17T02:29:49.868Z,71.43
2022-08-17T02:32:28.226Z,71.64
2022-08-17T02:34:59.220Z,71.81
2022-08-17T02:37:30.454Z,71.92
2022-08-17T02:40:00.002Z,72.00
2022-08-17T02:42:41.012Z,72.25
2022-08-17T02:45:16.677Z,72.27
2022-08-17T02:47:46.582Z,72.49
2022-08-17T02:50:19.348Z,72.83
2022-08-17T02:53:01.369Z,73.00
2022-08-17T02:55:37.188Z,73.18
2022-08-17T02:58:07.466Z,73.74
2022-08-17T03:00:41.318Z,73.99
2022-08-17T03:03:11.098Z,74.26
2022-08-17T03:05:40.000Z,74.91
2022-08-17T03:08:13.111Z,75.01
2022-08-17T03:10:43.224Z,75.38
2022-08-17T03:13:14.886Z,75.34
2022-08-17T03:15:47.447Z,75.54
2022-08-17T03:18:24.663Z,75.41
2022-08-17T03:20:56.751Z,75.36
2022-08-17T03:23:25.937Z,75.20
2022-08-17T03:25:56.069Z,75.10
2022-08-17T03:28:26.116Z,75.32
2022-08-17T03:30:56.107Z,75.03
2022-08-17T03:33:26.119Z,75.02
2022-08-17T03:35:54.128Z,74.98
2022-08-17T03:38:23.882Z,74.97
2022-08-17T03:40:57.338Z,74.87
2022-08-17T03:43:32.504Z,75.08
2022-08-17T03:46:28.865Z,75.09
2022-08-17T03:49:25.041Z,75.32
2022-08-17T03:52:16.399Z,75.18
2022-08-17T03:55:05.153Z,75.20
2022-08-17T03:57:33.264Z,75.35
2022-08-17T04:00:01.563Z,75.06
2022-08-17T04:02:41.023Z,75.34
2022-08-17T04:05:09.763Z,75.46
2022-08-17T04:07:37.589Z,75.28
2022-08-17T04:10:06.453Z,75.18
2022-08-17T04:12:51.365Z,75.18
2022-08-17T04:15:20.602Z,75.13
2022-08-17T04:17:48.500Z,75.02
2022-08-17T04:20:18.905Z,75.08
2022-08-17T04:23:09.821Z,74.93
2022-08-17T04:25:42.117Z,75.05
2022-08-17T04:28:16.119Z,74.76
2022-08-17T04:30:45.574Z,74.94
2022-08-17T04:33:21.137Z,74.70
2022-08-17T04:35:52.662Z,74.80
2022-08-17T04:38:27.302Z,74.88
2022-08-17T04:41:19.971Z,74.43
2022-08-17T04:43:50.440Z,74.61
2022-08-17T04:46:20.540Z,74.38
2022-08-17T04:48:51.166Z,74.19
2022-08-17T04:51:38.935Z,74.24
2022-08-17T04:54:17.429Z,74.18
2022-08-17T04:56:46.385Z,74.05
2022-08-17T04:59:18.532Z,73.99
2022-08-17T05:01:50.639Z,74.04
2022-08-17T05:04:34.229Z,74.02
2022-08-17T05:07:05.735Z,74.00
2022-08-17T05:09:33.888Z,74.05
2022-08-17T05:12:02.823Z,74.14
2022-08-17T05:14:33.738Z,74.31
2022-08-17T05:17:07.478Z,74.33
2022-08-17T05:19:42.167Z,74.28
2022-08-17T05:22:11.212Z,74.19
2022-08-17T05:24:43.462Z,74.10
2022-08-17T05:27:23.617Z,74.01
2022-08-17T05:29:52.183Z,73.83
2022-08-17T05:32:39.624Z,73.67
2022-08-17T05:35:08.685Z,73.89
2022-08-17T05:37:37.751Z,73.96
2022-08-17T05:40:07.247Z,73.82
2022-08-17T05:42:35.727Z,73.56
2022-08-17T05:45:04.934Z,73.48
2022-08-17T05:47:33.199Z,73.08
2022-08-17T05:50:02.960Z,72.70
2022-08-17T05:52:47.820Z,72.51
2022-08-17T05:55:22.680Z,71.94
2022-08-17T05:58:13.777Z,71.46
2022-08-17T06:00:56.206Z,70.93
2022-08-17T06:03:30.088Z,70.49
2022-08-17T06:06:06.829Z,70.02
2022-08-17T06:08:54.197Z,69.80
2022-08-17T06:11:41.718Z,69.54
2022-08-17T06:14:26.866Z,69.21
2022-08-17T06:17:02.773Z,68.50
2022-08-17T06:19:57.775Z,67.72
2022-08-17T06:22:34.102Z,67.39
2022-08-17T06:25:32.293Z,67.23
2022-08-17T06:28:08.380Z,67.14
2022-08-17T06:31:00.271Z,67.04
2022-08-17T06:33:49.799Z,66.55
2022-08-17T06:36:28.238Z,66.77
2022-08-17T06:39:23.667Z,66.63
2022-08-17T06:41:56.944Z,66.68
2022-08-17T06:44:50.723Z,66.65
2022-08-17T06:47:31.878Z,66.43
2022-08-17T06:50:07.430Z,65.14
2022-08-17T06:52:50.006Z,64.64
2022-08-17T06:55:34.470Z,64.37
2022-08-17T06:58:15.802Z,64.10
2022-08-17T07:00:49.356Z,63.27
2022-08-17T07:03:27.506Z,63.00
2022-08-17T07:06:13.015Z,63.22
2022-08-17T07:08:59.990Z,63.11
2022-08-17T07:11:40.270Z,63.02
2022-08-17T07:14:31.410Z,63.13
2022-08-17T07:17:14.699Z,63.26
2022-08-17T07:19:45.855Z,63.12
2022-08-17T07:22:25.085Z,63.08
2022-08-17T07:25:20.922Z,62.84
2022-08-17T07:28:00.126Z,62.92
2022-08-17T07:30:31.936Z,62.71
2022-08-17T07:33:27.107Z,62.87
2022-08-17T07:35:57.611Z,62.61
2022-08-17T07:38:55.057Z,62.44
2022-08-17T07:41:23.649Z,61.79
2022-08-17T07:43:54.259Z,61.69
2022-08-17T07:46:54.307Z,61.41
2022-08-17T07:49:35.038Z,61.35
2022-08-17T07:52:24.025Z,61.32
2022-08-17T07:55:06.914Z,60.63
2022-08-17T07:57:40.854Z,59.68
2022-08-17T08:00:17.933Z,58.67
2022-08-17T08:02:59.438Z,58.47
2022-08-17T08:05:49.371Z,57.62
2022-08-17T08:08:22.226Z,57.06
2022-08-17T08:11:01.693Z,57.21
2022-08-17T08:13:33.093Z,57.20
2022-08-17T08:16:24.647Z,56.51
2022-08-17T08:18:57.550Z,55.53
2022-08-17T08:22:00.284Z,55.00
2022-08-17T08:24:35.055Z,54.97
2022-08-17T08:27:44.388Z,54.54
2022-08-17T08:30:18.048Z,54.34
2022-08-17T08:33:17.369Z,54.20
2022-08-17T08:36:14.634Z,53.73
2022-08-17T08:39:16.351Z,53.08
2022-08-17T08:42:03.907Z,52.82
2022-08-17T08:44:59.879Z,52.33
2022-08-17T08:47:51.978Z,51.96
2022-08-17T08:50:38.035Z,51.17
2022-08-17T08:53:54.668Z,51.07
2022-08-17T08:56:35.485Z,50.97
2022-08-17T08:59:19.454Z,50.66
2022-08-17T09:02:34.927Z,50.14
2022-08-17T09:05:39.480Z,49.74
2022-08-17T09:08:35.949Z,49.42
2022-08-17T09:11:34.236Z,49.13
2022-08-17T09:14:31.858Z,48.50
2022-08-17T09:17:22.602Z,48.28
2022-08-17T09:19:57.951Z,48.24
2022-08-17T09:22:31.887Z,47.76
2022-08-17T09:25:10.112Z,47.49
2022-08-17T09:27:41.544Z,46.56
2022-08-17T09:30:12.248Z,46.27
2022-08-17T09:32:44.216Z,45.74
2022-08-17T09:35:25.280Z,45.04
2022-08-17T09:38:39.919Z,44.31
2022-08-17T09:41:28.464Z,44.09
2022-08-17T09:44:13.867Z,43.30
2022-08-17T09:47:30.679Z,42.83
2022-08-17T09:50:55.454Z,42.55
2022-08-17T09:53:19.942Z,42.32
2022-08-17T09:56:05.513Z,41.99
2022-08-17T09:58:53.207Z,41.79
2022-08-17T10:01:35.716Z,41.22
2022-08-17T10:04:39.190Z,40.99
2022-08-17T10:07:19.525Z,40.45
2022-08-17T10:10:14.308Z,40.20
2022-08-17T10:12:53.150Z,39.93
2022-08-17T10:15:49.938Z,39.36
2022-08-17T10:18:31.902Z,39.33
2022-08-17T10:21:24.766Z,39.29
2022-08-17T10:24:39.512Z,39.23
2022-08-17T10:28:06.866Z,38.96
2022-08-17T10:30:48.283Z,38.97
2022-08-17T10:33:57.620Z,38.69
2022-08-17T10:36:46.812Z,38.52
2022-08-17T10:39:30.958Z,38.10
2022-08-17T10:42:12.862Z,37.83
2022-08-17T10:45:26.387Z,37.14
2022-08-17T10:48:05.681Z,36.55
2022-08-17T10:50:46.317Z,36.33
2022-08-17T10:53:54.126Z,36.49
2022-08-17T10:56:24.377Z,36.82
2022-08-17T10:58:59.083Z,36.39
2022-08-17T11:01:33.342Z,36.49
2022-08-17T11:04:26.650Z,36.54
2022-08-17T11:07:02.398Z,35.83
2022-08-17T11:10:04.395Z,34.75
2022-08-17T11:12:57.082Z,34.33
2022-08-17T11:15:46.099Z,33.85
2022-08-17T11:18:40.813Z,33.34
2022-08-17T11:21:18.097Z,32.87
2022-08-17T11:24:12.839Z,32.10
2022-08-17T11:26:47.880Z,31.93
2022-08-17T11:29:29.550Z,32.08
2022-08-17T11:32:04.926Z,31.71
2022-08-17T11:34:35.317Z,31.81
2022-08-17T11:37:18.630Z,31.04
2022-08-17T11:40:08.491Z,30.85
2022-08-17T11:42:45.664Z,30.77
2022-08-17T11:45:44.205Z,30.65
2022-08-17T11:48:59.019Z,31.09
2022-08-17T11:52:00.092Z,30.67
2022-08-17T11:54:39.368Z,30.19
2022-08-17T11:57:29.418Z,30.37
2022-08-17T12:00:09.926Z,30.10
2022-08-17T12:02:48.141Z,29.98
2022-08-17T12:05:26.225Z,29.72
2022-08-17T12:08:00.204Z,29.51
2022-08-17T12:10:34.515Z,29.66
2022-08-17T12:13:15.967Z,29.19
2022-08-17T12:15:50.440Z,29.33
2022-08-17T12:18:21.828Z,28.75
2022-08-17T12:21:09.532Z,27.76
2022-08-17T12:24:07.881Z,27.68
2022-08-17T12:26:37.133Z,27.85
2022-08-17T12:29:18.083Z,27.33
2022-08-17T12:32:02.681Z,26.82
2022-08-17T12:34:39.319Z,26.54
2022-08-17T12:37:15.528Z,26.68
2022-08-17T12:39:57.985Z,26.17
2022-08-17T12:42:33.745Z,25.94
2022-08-17T12:45:01.878Z,26.07
2022-08-17T12:47:30.554Z,25.98
2022-08-17T12:50:28.458Z,25.17
2022-08-17T12:53:01.963Z,24.94
2022-08-17T12:55:37.635Z,24.95
2022-08-17T12:58:13.610Z,25.21
2022-08-17T13:00:50.935Z,25.22
2022-08-17T13:03:23.134Z,25.34
2022-08-17T13:06:15.189Z,25.74
2022-08-17T13:08:48.565Z,25.96
2022-08-17T13:11:24.419Z,25.83
2022-08-17T13:13:56.239Z,25.84
2022-08-17T13:16:27.996Z,25.78
2022-08-17T13:19:18.944Z,25.50
2022-08-17T13:22:15.535Z,25.43
2022-08-17T13:24:54.280Z,25.52
2022-08-17T13:27:25.841Z,25.24
2022-08-17T13:30:08.440Z,25.17
2022-08-17T13:32:47.595Z,24.94
2022-08-17T13:35:33.426Z,24.72
2022-08-17T13:38:13.012Z,24.81
2022-08-17T13:40:49.356Z,24.79
2022-08-17T13:43:39.509Z,24.33
2022-08-17T13:46:35.096Z,24.19
2022-08-17T13:49:06.729Z,23.79
2022-08-17T13:51:50.428Z,23.87
2022-08-17T13:54:32.869Z,23.98
2022-08-17T13:57:20.032Z,23.48
2022-08-17T13:59:54.656Z,23.52
2022-08-17T14:02:28.801Z,23.26
2022-08-17T14:04:58.725Z,22.83
2022-08-17T14:07:33.916Z,22.88
2022-08-17T14:10:03.192Z,22.54
2022-08-17T14:12:39.727Z,22.34
2022-08-17T14:15:12.447Z,21.92
2022-08-17T14:17:40.426Z,22.13
2022-08-17T14:20:13.076Z,21.73
2022-08-17T14:22:45.335Z,21.74
2022-08-17T14:25:16.434Z,21.89
2022-08-17T14:27:52.777Z,21.64
2022-08-17T14:30:24.632Z,21.29
2022-08-17T14:32:53.642Z,21.11
2022-08-17T14:35:25.470Z,20.86
2022-08-17T14:37:54.157Z,20.53
2022-08-17T14:40:24.990Z,20.36
2022-08-17T14:42:55.419Z,20.00
2022-08-17T14:45:32.415Z,19.31
2022-08-17T14:48:07.989Z,19.56
2022-08-17T14:50:38.922Z,19.62
2022-08-17T14:53:15.132Z,19.71
2022-08-17T14:55:45.795Z,19.70
2022-08-17T14:58:15.368Z,19.63
2022-08-17T15:00:43.697Z,19.73
2022-08-17T15:03:12.412Z,19.68
2022-08-17T15:05:41.075Z,19.54
2022-08-17T15:08:11.120Z,19.59
2022-08-17T15:10:39.461Z,19.12
2022-08-17T15:13:20.185Z,18.72
2022-08-17T15:15:48.560Z,18.96
2022-08-17T15:18:18.735Z,18.14
2022-08-17T15:20:52.398Z,17.86
2022-08-17T15:23:23.228Z,17.77
2022-08-17T15:25:53.828Z,18.12
2022-08-17T15:28:23.037Z,17.29
2022-08-17T15:30:52.496Z,17.39
2022-08-17T15:33:29.496Z,17.40
2022-08-17T15:36:00.829Z,17.19
2022-08-17T15:38:30.178Z,17.28
2022-08-17T15:41:00.191Z,17.10
2022-08-17T15:43:33.995Z,17.50
2022-08-17T15:46:05.889Z,17.65
2022-08-17T15:48:43.450Z,17.39
2022-08-17T15:51:18.459Z,17.23
2022-08-17T15:53:52.333Z,17.42
2022-08-17T15:56:20.935Z,17.56
2022-08-17T15:58:49.510Z,17.24
2022-08-17T16:02:22.366Z,17.22
2022-08-17T16:04:30.639Z,17.21
2022-08-17T16:06:58.990Z,17.33
2022-08-17T16:09:28.646Z,17.10
2022-08-17T16:11:56.727Z,17.09
2022-08-17T16:14:32.516Z,16.90
2022-08-17T16:17:04.730Z,16.99
2022-08-17T16:19:34.256Z,16.99
2022-08-17T16:22:03.863Z,17.02
2022-08-17T16:24:33.173Z,17.63
2022-08-17T16:27:01.584Z,18.02
2022-08-17T16:29:29.447Z,18.25
2022-08-17T16:31:58.278Z,18.21
2022-08-17T16:34:25.938Z,18.24
2022-08-17T16:36:56.442Z,18.33
2022-08-17T16:39:27.553Z,18.25
2022-08-17T16:41:56.186Z,18.30
2022-08-17T16:44:25.917Z,18.14
2022-08-17T16:46:54.170Z,17.90
2022-08-17T16:49:34.448Z,17.97
2022-08-17T16:52:05.934Z,17.92
2022-08-17T16:54:35.677Z,17.77
2022-08-17T16:57:05.456Z,18.00
2022-08-17T16:59:41.112Z,18.24
2022-08-17T17:02:15.044Z,18.22
2022-08-17T17:05:11.636Z,18.66
2022-08-17T17:08:09.239Z,18.98
2022-08-17T17:10:44.881Z,19.30
2022-08-17T17:13:27.987Z,19.41
2022-08-17T17:15:55.759Z,20.04
2022-08-17T17:18:34.525Z,20.10
2022-08-17T17:21:02.521Z,20.59
2022-08-17T17:23:55.019Z,20.83
2022-08-17T17:26:59.874Z,21.21
2022-08-17T17:29:54.509Z,21.36
2022-08-17T17:32:38.113Z,21.69
2022-08-17T17:35:35.989Z,22.03
2022-08-17T17:38:15.236Z,22.61
2022-08-17T17:40:47.616Z,23.24
2022-08-17T17:43:38.367Z,23.81
2022-08-17T17:46:29.052Z,24.19
2022-08-17T17:48:58.735Z,24.55
2022-08-17T17:52:06.835Z,25.05
2022-08-17T17:54:46.360Z,25.57
2022-08-17T17:57:24.969Z,25.91
2022-08-17T18:00:06.904Z,26.29
2022-08-17T18:02:51.995Z,26.64
2022-08-17T18:05:44.332Z,27.20
2022-08-17T18:08:36.613Z,27.73
2022-08-17T18:11:27.014Z,28.37
2022-08-17T18:14:02.560Z,28.83
2022-08-17T18:16:32.841Z,29.41
2022-08-17T18:19:01.649Z,29.83
2022-08-17T18:21:38.054Z,29.91
2022-08-17T18:24:08.717Z,30.35
2022-08-17T18:26:44.997Z,30.61
2022-08-17T18:29:27.932Z,31.09
2022-08-17T18:32:32.671Z,31.42
2022-08-17T18:35:28.358Z,31.88
2022-08-17T18:38:22.082Z,32.57
2022-08-17T18:41:18.336Z,33.02
2022-08-17T18:44:18.868Z,33.50
2022-08-17T18:46:48.094Z,33.74
2022-08-17T18:49:18.977Z,34.34
2022-08-17T18:51:47.134Z,34.75
2022-08-17T18:54:21.134Z,35.13
2022-08-17T18:57:00.074Z,35.23
2022-08-17T18:59:39.825Z,35.46
2022-08-17T19:02:24.834Z,35.85
2022-08-17T19:05:27.113Z,36.30
2022-08-17T19:08:13.934Z,36.84
2022-08-17T19:10:46.084Z,37.11
2022-08-17T19:13:23.404Z,37.10
2022-08-17T19:16:11.764Z,37.49
2022-08-17T19:18:52.999Z,37.51
2022-08-17T19:21:31.080Z,37.64
2022-08-17T19:24:08.327Z,37.84
2022-08-17T19:26:54.052Z,38.37
2022-08-17T19:29:35.159Z,38.55
2022-08-17T19:32:04.307Z,38.86
2022-08-17T19:34:36.988Z,38.99
2022-08-17T19:37:53.415Z,38.97
2022-08-17T19:40:51.774Z,39.07
2022-08-17T19:43:56.564Z,39.31
2022-08-17T19:47:06.216Z,39.70
2022-08-17T19:49:46.678Z,40.12
2022-08-17T19:52:39.420Z,40.23
2022-08-17T19:55:21.489Z,40.49
2022-08-17T19:58:00.987Z,40.50
2022-08-17T20:00:31.327Z,40.64
2022-08-17T20:03:08.147Z,41.05
2022-08-17T20:06:10.771Z,40.92
2022-08-17T20:08:38.970Z,41.19
2022-08-17T20:11:10.797Z,41.45
2022-08-17T20:13:41.770Z,41.80
2022-08-17T20:16:12.684Z,42.18
2022-08-17T20:18:43.948Z,42.33
2022-08-17T20:21:21.900Z,42.61
2022-08-17T20:24:18.650Z,42.86
2022-08-17T20:27:21.806Z,42.61
2022-08-17T20:30:11.137Z,42.87
2022-08-17T20:32:53.208Z,42.99
2022-08-17T20:35:35.541Z,43.26
2022-08-17T20:38:11.093Z,43.41
2022-08-17T20:40:54.656Z,43.38
2022-08-17T20:43:32.830Z,43.69
2022-08-17T20:46:16.018Z,43.59
2022-08-17T20:48:47.775Z,43.80
2022-08-17T20:51:26.698Z,43.79
2022-08-17T20:53:54.549Z,44.04
2022-08-17T20:56:44.976Z,43.99
2022-08-17T20:59:25.621Z,44.20
2022-08-17T21:02:12.430Z,44.37
2022-08-17T21:04:57.414Z,44.44
2022-08-17T21:07:43.044Z,44.57
2022-08-17T21:10:18.244Z,44.65
2022-08-17T21:13:13.894Z,44.70
2022-08-17T21:15:47.622Z,44.47
2022-08-17T21:18:41.396Z,44.42
2022-08-17T21:21:24.771Z,44.51
2022-08-17T21:23:58.154Z,44.62
2022-08-17T21:26:55.645Z,44.71
2022-08-17T21:29:31.547Z,44.81
2022-08-17T21:32:03.101Z,44.98
2022-08-17T21:34:37.410Z,45.11
2022-08-17T21:37:24.179Z,45.20
2022-08-17T21:40:19.139Z,45.37
2022-08-17T21:42:51.232Z,45.50
2022-08-17T21:45:28.936Z,45.51
2022-08-17T21:48:27.487Z,45.67
2022-08-17T21:50:58.789Z,45.79
2022-08-17T21:53:49.902Z,45.91
2022-08-17T21:56:36.674Z,45.83
2022-08-17T21:59:25.160Z,46.07
2022-08-17T22:02:05.953Z,46.25
2022-08-17T22:04:35.439Z,46.57
2022-08-17T22:07:09.053Z,46.52
2022-08-17T22:09:44.707Z,46.74
2022-08-17T22:12:20.746Z,46.82
2022-08-17T22:15:01.359Z,47.04
2022-08-17T22:17:35.926Z,47.25
2022-08-17T22:20:16.894Z,47.39
2022-08-17T22:23:12.929Z,47.59
2022-08-17T22:26:00.267Z,47.77
2022-08-17T22:28:45.939Z,48.01
2022-08-17T22:31:40.163Z,48.15
2022-08-17T22:34:14.801Z,48.55
2022-08-17T22:36:43.185Z,48.49
2022-08-17T22:39:11.179Z,48.87
2022-08-17T22:41:48.659Z,49.04
2022-08-17T22:44:32.199Z,49.17
2022-08-17T22:47:24.250Z,49.31
2022-08-17T22:49:58.004Z,49.74
2022-08-17T22:53:04.394Z,49.94
2022-08-17T22:55:53.168Z,50.25
2022-08-17T22:58:43.518Z,50.30
2022-08-17T23:01:33.383Z,50.58
2022-08-17T23:04:06.138Z,50.86
2022-08-17T23:06:37.282Z,51.16
2022-08-17T23:09:07.371Z,51.15
2022-08-17T23:11:50.182Z,51.62
2022-08-17T23:14:21.265Z,51.65
2022-08-17T23:16:50.330Z,51.87
2022-08-17T23:19:21.363Z,52.27
2022-08-17T23:21:52.874Z,52.41
2022-08-17T23:24:27.037Z,52.51
2022-08-17T23:26:57.655Z,52.72
2022-08-17T23:29:29.550Z,52.90
2022-08-17T23:32:01.407Z,53.42
2022-08-17T23:34:30.892Z,53.96
2022-08-17T23:37:02.854Z,54.10
2022-08-17T23:39:32.801Z,54.60
2022-08-17T23:42:05.593Z,54.97
2022-08-17T23:44:37.151Z,55.47
2022-08-17T23:47:07.985Z,55.56
2022-08-17T23:49:36.625Z,55.84
2022-08-17T23:52:15.244Z,55.83
2022-08-17T23:54:47.820Z,56.11
2022-08-17T23:57:20.165Z,56.21
